Time;durP1;ratioP1;P1;durP2;ratioP2;P2;SDS_P1;SDS_P2;PMS_P1;PMS_P2;Temp;Humidity;BMP_temperature;BMP_pressure;BME280_temperature;BME280_humidity;BME280_pressure;Samples;Min_cycle;Max_cycle;Signal;HPM_P1;HPM_P2
2021/07/06 00:02:22;;;;;;;3.75;1.80;;;20.90;77.70;;;;;;5097083;28;20052;-70
2021/07/06 00:04:50;;;;;;;1.98;1.77;;;21.00;77.50;;;;;;5096985;28;20028;-69
2021/07/06 00:07:18;;;;;;;2.13;1.70;;;21.00;77.70;;;;;;5096630;28;20420;-70
2021/07/06 00:09:46;;;;;;;3.83;1.88;;;21.00;77.70;;;;;;5096654;28;20404;-70
2021/07/06 00:12:12;;;;;;;2.53;2.33;;;21.00;77.40;;;;;;5096951;28;20047;-70
2021/07/06 00:14:38;;;;;;;2.65;2.45;;;21.00;77.50;;;;;;5097197;28;20036;-69
2021/07/06 00:17:04;;;;;;;2.65;2.13;;;21.00;77.50;;;;;;5097501;28;20128;-70
2021/07/06 00:19:30;;;;;;;3.13;1.50;;;21.00;77.70;;;;;;5101078;28;20070;-70
2021/07/06 00:21:56;;;;;;;2.40;1.80;;;21.00;77.50;;;;;;5100983;28;20028;-70
2021/07/06 00:24:21;;;;;;;6.10;1.88;;;21.00;76.70;;;;;;5100890;28;20016;-70
2021/07/06 00:26:47;;;;;;;6.75;2.20;;;21.00;77.10;;;;;;5100377;28;20044;-70
2021/07/06 00:29:13;;;;;;;3.30;1.60;;;20.90;77.70;;;;;;5100904;28;20024;-70
2021/07/06 00:31:39;;;;;;;2.65;1.52;;;20.80;78.20;;;;;;5100503;28;20024;-69
2021/07/06 00:34:04;;;;;;;2.92;1.40;;;20.60;78.90;;;;;;5100781;28;20012;-70
2021/07/06 00:36:30;;;;;;;2.25;2.03;;;20.60;79.50;;;;;;5100717;28;20032;-70
2021/07/06 00:38:56;;;;;;;4.60;2.63;;;20.40;80.10;;;;;;5100669;28;20032;-70
2021/07/06 00:41:21;;;;;;;5.40;2.63;;;20.40;80.60;;;;;;5100363;28;20050;-70
2021/07/06 00:43:47;;;;;;;4.22;2.85;;;20.40;81.80;;;;;;5100652;28;20073;-70
2021/07/06 00:46:13;;;;;;;5.03;3.80;;;20.40;81.80;;;;;;5100174;28;20024;-70
2021/07/06 00:48:38;;;;;;;4.90;3.65;;;20.40;81.90;;;;;;5100207;28;20044;-70
2021/07/06 00:51:04;;;;;;;3.60;3.30;;;20.40;82.20;;;;;;5100173;28;20028;-70
2021/07/06 00:53:30;;;;;;;2.92;2.67;;;20.40;82.60;;;;;;5100407;28;20016;-70
2021/07/06 00:55:57;;;;;;;5.00;2.90;;;20.40;82.10;;;;;;5100040;28;20344;-70
2021/07/06 00:58:24;;;;;;;4.90;2.70;;;20.40;82.70;;;;;;5100025;28;20024;-70
2021/07/06 01:00:50;;;;;;;6.10;2.90;;;20.30;82.20;;;;;;5100270;28;20024;-70
2021/07/06 01:03:16;;;;;;;4.13;2.85;;;20.20;82.30;;;;;;5100199;28;20024;-70
2021/07/06 01:05:42;;;;;;;2.25;2.05;;;20.10;82.60;;;;;;5100055;28;20035;-70
2021/07/06 01:08:08;;;;;;;2.78;1.98;;;20.00;83.00;;;;;;5100113;28;20408;-70
2021/07/06 01:10:35;;;;;;;4.55;2.00;;;19.90;84.10;;;;;;5100085;28;20024;-70
2021/07/06 01:13:02;;;;;;;4.63;2.60;;;19.80;84.70;;;;;;5099973;28;20024;-70
2021/07/06 01:15:30;;;;;;;3.00;2.50;;;19.80;84.00;;;;;;5099631;28;20420;-70
2021/07/06 01:18:06;;;;;;;3.00;2.35;;;19.80;82.90;;;;;;5099642;28;20111;-70
2021/07/06 01:20:33;;;;;;;3.65;2.95;;;20.00;81.90;;;;;;5099942;28;20105;-70
2021/07/06 01:22:59;;;;;;;3.38;2.42;;;20.20;81.40;;;;;;5099895;28;20046;-69
2021/07/06 01:25:26;;;;;;;4.93;1.92;;;20.30;80.20;;;;;;5099237;28;20020;-70
2021/07/06 01:27:51;;;;;;;2.25;1.92;;;20.40;78.90;;;;;;5099447;28;20035;-70
2021/07/06 01:30:18;;;;;;;2.83;1.98;;;20.50;78.60;;;;;;5098845;28;20054;-70
2021/07/06 01:32:46;;;;;;;5.63;2.60;;;20.60;77.80;;;;;;5099682;28;20024;-70
2021/07/06 01:35:14;;;;;;;2.92;2.00;;;20.70;78.00;;;;;;5099214;28;20024;-70
2021/07/06 01:37:50;;;;;;;5.07;1.90;;;20.70;77.90;;;;;;5099591;28;20031;-70
2021/07/06 01:40:18;;;;;;;2.60;2.08;;;20.80;77.80;;;;;;5099287;28;20111;-70
2021/07/06 01:42:44;;;;;;;2.95;2.22;;;20.80;77.90;;;;;;5099390;28;20035;-70
2021/07/06 01:45:13;;;;;;;2.92;2.28;;;20.80;78.10;;;;;;5099034;28;20063;-70
2021/07/06 01:47:42;;;;;;;3.28;2.70;;;20.80;78.30;;;;;;5099101;28;20017;-70
2021/07/06 01:50:10;;;;;;;7.55;2.83;;;20.80;78.70;;;;;;5099001;28;20024;-70
2021/07/06 01:52:41;;;;;;;3.20;2.63;;;20.70;78.80;;;;;;5098994;28;20483;-70
2021/07/06 01:55:09;;;;;;;4.47;2.10;;;20.70;78.50;;;;;;5099228;28;20032;-70
2021/07/06 01:57:35;;;;;;;2.40;2.20;;;20.70;78.30;;;;;;5099189;28;20161;-70
2021/07/06 02:00:03;;;;;;;3.17;2.38;;;20.80;77.80;;;;;;5099103;28;20052;-70
2021/07/06 02:02:28;;;;;;;2.53;2.20;;;20.80;78.10;;;;;;5098756;28;20059;-70
2021/07/06 02:04:54;;;;;;;3.20;2.53;;;20.80;77.60;;;;;;5098672;28;20105;-70
2021/07/06 02:07:20;;;;;;;4.78;2.42;;;20.80;78.10;;;;;;5098643;28;20024;-70
2021/07/06 02:09:45;;;;;;;3.60;2.63;;;20.80;78.50;;;;;;5098943;28;20020;-70
2021/07/06 02:12:11;;;;;;;6.15;2.25;;;20.80;78.50;;;;;;5098866;28;20324;-70
2021/07/06 02:14:37;;;;;;;2.70;1.90;;;20.80;78.40;;;;;;5099042;28;20054;-70
2021/07/06 02:17:03;;;;;;;3.35;2.08;;;20.70;78.90;;;;;;5098743;28;20107;-70
2021/07/06 02:19:29;;;;;;;3.05;2.30;;;20.60;79.00;;;;;;5098763;28;20095;-70
2021/07/06 02:21:54;;;;;;;4.78;2.33;;;20.60;78.70;;;;;;5098369;28;20050;-70
2021/07/06 02:24:20;;;;;;;2.40;1.70;;;20.70;78.50;;;;;;5098685;28;20017;-70
2021/07/06 02:26:45;;;;;;;3.05;2.10;;;20.70;78.10;;;;;;5098191;28;20416;-70
2021/07/06 02:29:11;;;;;;;4.80;2.80;;;20.80;78.20;;;;;;5098579;28;20103;-69
2021/07/06 02:31:37;;;;;;;2.95;1.70;;;20.80;78.00;;;;;;5098512;28;20027;-70
2021/07/06 02:34:02;;;;;;;4.65;1.70;;;20.70;77.80;;;;;;5098137;28;20024;-69
2021/07/06 02:36:28;;;;;;;3.03;1.83;;;20.80;78.30;;;;;;5098424;28;20032;-69
2021/07/06 02:38:54;;;;;;;1.90;1.50;;;20.70;78.20;;;;;;5098388;28;20024;-70
2021/07/06 02:41:19;;;;;;;1.67;1.50;;;20.50;78.80;;;;;;5098035;28;20027;-70
2021/07/06 02:43:45;;;;;;;2.58;1.73;;;20.40;79.40;;;;;;5097872;28;20121;-70
2021/07/06 02:46:11;;;;;;;2.20;1.65;;;20.30;79.80;;;;;;5098172;28;20028;-69
2021/07/06 02:48:38;;;;;;;3.47;1.75;;;20.30;80.30;;;;;;5098154;28;20100;-70
2021/07/06 02:51:03;;;;;;;3.75;1.75;;;20.10;81.60;;;;;;5098141;28;20036;-70
2021/07/06 02:53:29;;;;;;;4.03;2.40;;;20.00;81.40;;;;;;5098151;28;20430;-70
2021/07/06 02:55:55;;;;;;;2.95;1.90;;;20.00;81.00;;;;;;5098032;28;20082;-70
2021/07/06 02:58:20;;;;;;;1.90;1.60;;;20.00;82.10;;;;;;5098012;28;20031;-70
2021/07/06 03:00:46;;;;;;;2.72;1.55;;;20.00;82.20;;;;;;5097683;28;20020;-70
2021/07/06 03:03:12;;;;;;;1.80;1.70;;;19.90;82.10;;;;;;5097586;28;20066;-69
2021/07/06 03:05:38;;;;;;;2.33;1.58;;;19.70;83.40;;;;;;5097795;28;20036;-69
2021/07/06 03:08:04;;;;;;;1.95;1.67;;;19.60;84.30;;;;;;5097517;28;20103;-70
2021/07/06 03:10:34;;;;;;;3.22;1.83;;;19.50;84.70;;;;;;5097499;28;20416;-70
2021/07/06 03:13:00;;;;;;;2.90;1.67;;;19.40;85.20;;;;;;5097660;28;20354;-69
2021/07/06 03:15:27;;;;;;;4.82;1.75;;;19.30;85.60;;;;;;5097687;28;20035;-70
2021/07/06 03:17:54;;;;;;;5.22;2.10;;;19.20;85.70;;;;;;5097352;28;20020;-70
2021/07/06 03:20:21;;;;;;;3.13;2.00;;;19.00;86.10;;;;;;5097338;28;20042;-70
2021/07/06 03:22:47;;;;;;;3.85;1.90;;;19.00;86.50;;;;;;5097558;28;20020;-70
2021/07/06 03:25:16;;;;;;;2.55;2.08;;;19.00;86.60;;;;;;5097717;28;20028;-69
2021/07/06 03:27:42;;;;;;;3.55;2.20;;;19.00;86.30;;;;;;5097003;28;20046;-70
2021/07/06 03:30:11;;;;;;;5.20;2.25;;;19.00;86.50;;;;;;5097175;28;20028;-70
2021/07/06 03:32:37;;;;;;;2.22;2.03;;;19.00;86.30;;;;;;5097509;28;20103;-70
2021/07/06 03:35:05;;;;;;;2.60;2.15;;;19.00;85.70;;;;;;5097374;28;20059;-69
2021/07/06 03:37:31;;;;;;;4.22;1.90;;;19.00;85.50;;;;;;5097282;28;20043;-70
2021/07/06 03:39:56;;;;;;;2.92;2.20;;;19.00;85.40;;;;;;5097003;28;20028;-70
2021/07/06 03:42:22;;;;;;;3.90;1.80;;;19.10;85.50;;;;;;5097278;28;20028;-70
2021/07/06 03:44:48;;;;;;;2.35;2.03;;;19.00;86.20;;;;;;5097430;28;20043;-70
2021/07/06 03:47:14;;;;;;;1.77;1.50;;;19.00;86.70;;;;;;5096915;28;20073;-70
2021/07/06 03:49:39;;;;;;;3.35;1.90;;;19.00;86.40;;;;;;5097173;28;20020;-70
2021/07/06 03:52:05;;;;;;;2.00;1.80;;;19.00;86.40;;;;;;5096754;28;20451;-70
2021/07/06 03:54:31;;;;;;;2.90;2.03;;;19.00;86.80;;;;;;5097188;28;20077;-70
2021/07/06 03:56:57;;;;;;;3.47;2.10;;;19.00;87.40;;;;;;5097086;28;20408;-70
2021/07/06 03:59:23;;;;;;;3.88;2.45;;;19.00;87.60;;;;;;5096789;28;20055;-70
2021/07/06 04:01:52;;;;;;;2.55;2.20;;;18.90;87.20;;;;;;5097060;28;20021;-70
2021/07/06 04:04:18;;;;;;;2.00;1.80;;;19.00;87.10;;;;;;5096704;28;20409;-70
2021/07/06 04:06:43;;;;;;;4.13;2.33;;;19.00;86.60;;;;;;5096489;28;20093;-70
2021/07/06 04:09:09;;;;;;;3.03;2.05;;;19.10;86.80;;;;;;5097007;28;20034;-70
2021/07/06 04:11:35;;;;;;;2.55;2.35;;;19.00;87.60;;;;;;5096733;28;20413;-70
2021/07/06 04:14:00;;;;;;;3.45;2.60;;;19.00;87.40;;;;;;5097029;28;20035;-70
2021/07/06 04:16:26;;;;;;;5.18;2.85;;;19.00;87.40;;;;;;5096926;28;20053;-70
2021/07/06 04:18:51;;;;;;;2.28;2.00;;;19.00;86.00;;;;;;5096901;28;20029;-70
2021/07/06 04:21:17;;;;;;;2.88;2.05;;;19.10;84.80;;;;;;5096889;28;20315;-70
2021/07/06 04:23:43;;;;;;;3.28;2.30;;;19.10;83.90;;;;;;5096589;28;20028;-70
2021/07/06 04:26:09;;;;;;;4.32;2.30;;;19.20;84.00;;;;;;5096459;28;20138;-70
2021/07/06 04:28:35;;;;;;;2.45;2.25;;;19.20;85.70;;;;;;5096845;28;20035;-70
2021/07/06 04:31:01;;;;;;;2.28;2.08;;;19.20;85.70;;;;;;5096831;28;20025;-70
2021/07/06 04:33:27;;;;;;;2.00;1.80;;;19.20;85.80;;;;;;5096420;28;20020;-70
2021/07/06 04:35:53;;;;;;;2.25;2.05;;;19.30;84.40;;;;;;5096645;28;20024;-70
2021/07/06 04:38:19;;;;;;;2.60;1.70;;;19.40;84.50;;;;;;5096472;28;20036;-70
2021/07/06 04:40:45;;;;;;;3.17;2.20;;;19.50;84.50;;;;;;5096719;28;20020;-70
2021/07/06 04:43:11;;;;;;;2.00;1.80;;;19.60;85.40;;;;;;5096662;28;20438;-70
2021/07/06 04:45:37;;;;;;;2.72;1.77;;;19.70;81.10;;;;;;5096306;28;20432;-70
2021/07/06 04:48:05;;;;;;;1.73;1.40;;;19.80;81.30;;;;;;5096341;28;20036;-70
2021/07/06 04:50:34;;;;;;;1.92;1.60;;;20.00;80.00;;;;;;5096387;28;20062;-70
2021/07/06 04:53:00;;;;;;;2.10;1.50;;;20.00;80.60;;;;;;5096275;28;20028;-70
2021/07/06 04:55:25;;;;;;;1.50;1.40;;;20.10;81.00;;;;;;5096561;28;20157;-70
2021/07/06 04:57:51;;;;;;;2.67;1.25;;;20.10;80.60;;;;;;5096534;28;20111;-70
2021/07/06 05:00:17;;;;;;;2.17;1.50;;;20.20;82.70;;;;;;5095198;28;20108;-70
2021/07/06 05:02:44;;;;;;;4.53;1.85;;;20.30;80.00;;;;;;5096504;28;20024;-70
2021/07/06 05:05:10;;;;;;;1.55;1.20;;;20.30;82.70;;;;;;5098294;28;20320;-70
2021/07/06 05:07:36;;;;;;;1.88;1.20;;;20.40;84.20;;;;;;5100163;28;20016;-70
2021/07/06 05:10:05;;;;;;;1.77;1.42;;;20.40;84.00;;;;;;5100125;28;20354;-70
2021/07/06 05:12:31;;;;;;;1.70;1.30;;;20.50;82.90;;;;;;5099707;28;20359;-70
2021/07/06 05:14:57;;;;;;;3.75;0.90;;;20.40;82.70;;;;;;5100136;28;20036;-70
2021/07/06 05:17:22;;;;;;;1.60;1.40;;;20.50;81.70;;;;;;5099707;28;20032;-70
2021/07/06 05:19:48;;;;;;;2.35;1.35;;;20.60;80.10;;;;;;5099906;28;20028;-70
2021/07/06 05:22:14;;;;;;;1.70;1.50;;;20.70;81.40;;;;;;5099896;28;20031;-70
2021/07/06 05:24:39;;;;;;;1.55;1.38;;;20.80;81.60;;;;;;5099810;28;20024;-70
2021/07/06 05:27:05;;;;;;;3.05;1.58;;;20.80;81.80;;;;;;5099438;28;20394;-70
2021/07/06 05:29:31;;;;;;;2.25;1.58;;;20.90;80.80;;;;;;5099490;28;20027;-70
2021/07/06 05:31:56;;;;;;;3.30;1.40;;;21.00;81.00;;;;;;5099412;28;20016;-70
2021/07/06 05:34:22;;;;;;;2.10;1.48;;;21.10;80.20;;;;;;5099402;28;20062;-70
2021/07/06 05:36:49;;;;;;;2.53;1.65;;;21.20;79.00;;;;;;5099574;28;20102;-70
2021/07/06 05:39:15;;;;;;;2.97;1.83;;;21.40;79.00;;;;;;5099544;28;20032;-70
2021/07/06 05:41:41;;;;;;;2.10;1.50;;;21.50;78.50;;;;;;5099189;28;20024;-70
2021/07/06 05:44:08;;;;;;;3.30;1.33;;;21.60;77.80;;;;;;5099565;28;20047;-70
2021/07/06 05:46:34;;;;;;;1.60;1.40;;;21.70;77.40;;;;;;5099346;28;20103;-70
2021/07/06 05:49:00;;;;;;;1.58;1.00;;;21.80;77.80;;;;;;5099054;28;20107;-70
2021/07/06 05:51:26;;;;;;;1.92;1.10;;;21.90;76.70;;;;;;5099368;28;20294;-70
2021/07/06 05:53:52;;;;;;;2.20;1.05;;;22.00;79.60;;;;;;5098989;28;20073;-70
2021/07/06 05:56:20;;;;;;;2.22;1.27;;;22.10;80.70;;;;;;5098920;28;20032;-70
2021/07/06 05:58:47;;;;;;;2.72;1.40;;;22.10;80.40;;;;;;5099212;28;20050;-70
2021/07/06 06:01:13;;;;;;;3.72;1.20;;;22.20;78.10;;;;;;5099160;28;20320;-70
2021/07/06 06:03:39;;;;;;;1.85;0.98;;;22.30;78.60;;;;;;5099077;28;20328;-70
2021/07/06 06:06:04;;;;;;;1.40;0.95;;;22.50;78.10;;;;;;5098667;28;20024;-70
2021/07/06 06:08:30;;;;;;;3.00;1.10;;;22.80;77.90;;;;;;5098658;28;20028;-70
2021/07/06 06:10:56;;;;;;;1.98;1.15;;;22.90;77.50;;;;;;5098990;28;20044;-70
2021/07/06 06:13:22;;;;;;;4.25;1.10;;;23.00;75.30;;;;;;5098872;28;20435;-70
2021/07/06 06:15:48;;;;;;;1.95;0.80;;;23.10;74.70;;;;;;5098144;28;20032;-70
2021/07/06 06:18:13;;;;;;;2.85;1.08;;;23.20;75.70;;;;;;5098810;28;20024;-70
2021/07/06 06:20:39;;;;;;;2.55;1.00;;;23.50;75.90;;;;;;5098513;28;20028;-70
2021/07/06 06:23:05;;;;;;;2.47;0.85;;;24.00;72.30;;;;;;5098433;28;20154;-70
2021/07/06 06:25:32;;;;;;;2.75;1.10;;;24.50;71.70;;;;;;5098386;28;20024;-72
2021/07/06 06:27:58;;;;;;;1.20;0.88;;;24.80;70.10;;;;;;5098680;28;20138;-70
2021/07/06 06:30:23;;;;;;;1.20;0.90;;;25.00;69.90;;;;;;5098284;28;20020;-70
2021/07/06 06:32:51;;;;;;;1.88;0.90;;;25.60;67.80;;;;;;5098497;28;20023;-70
2021/07/06 06:35:17;;;;;;;2.45;0.90;;;26.30;66.20;;;;;;5098142;28;20412;-70
2021/07/06 06:37:42;;;;;;;1.88;0.70;;;27.00;64.80;;;;;;5098461;28;20031;-70
2021/07/06 06:40:10;;;;;;;1.00;0.77;;;27.70;64.20;;;;;;5098385;28;20358;-70
2021/07/06 06:42:37;;;;;;;1.52;0.80;;;28.30;62.10;;;;;;5098340;28;20044;-70
2021/07/06 06:45:04;;;;;;;1.15;0.70;;;28.60;61.30;;;;;;5097714;28;20050;-70
2021/07/06 06:47:30;;;;;;;0.82;0.60;;;29.00;61.60;;;;;;5098287;28;20406;-70
2021/07/06 06:49:56;;;;;;;1.48;0.70;;;29.20;61.10;;;;;;5098207;28;20099;-70
2021/07/06 06:52:22;;;;;;;2.25;0.80;;;29.60;61.40;;;;;;5097863;28;20021;-70
2021/07/06 06:54:48;;;;;;;0.80;0.68;;;30.00;60.40;;;;;;5098113;28;20040;-70
2021/07/06 06:57:14;;;;;;;1.83;0.80;;;30.00;59.30;;;;;;5098051;28;20108;-70
2021/07/06 06:59:39;;;;;;;1.67;0.93;;;29.90;59.50;;;;;;5098014;28;20031;-71
2021/07/06 07:02:17;;;;;;;2.10;0.88;;;29.90;58.20;;;;;;5097954;28;20405;-71
2021/07/06 07:04:50;;;;;;;1.45;0.77;;;30.10;59.10;;;;;;5097559;28;20408;-71
2021/07/06 07:07:17;;;;;;;1.38;0.68;;;30.40;58.70;;;;;;5097585;28;20028;-70
2021/07/06 07:09:43;;;;;;;1.80;0.90;;;30.50;58.70;;;;;;5097836;28;20028;-71
2021/07/06 07:12:10;;;;;;;1.27;0.85;;;30.80;58.60;;;;;;5097822;28;20026;-71
2021/07/06 07:14:36;;;;;;;1.55;0.80;;;30.80;57.20;;;;;;5097934;28;20293;-71
2021/07/06 07:17:03;;;;;;;3.33;0.90;;;30.90;57.20;;;;;;5097271;28;20024;-71
2021/07/06 07:19:29;;;;;;;2.70;1.10;;;31.00;57.20;;;;;;5097652;28;20031;-71
2021/07/06 07:21:54;;;;;;;1.58;0.90;;;30.90;56.30;;;;;;5097657;28;20016;-71
2021/07/06 07:24:20;;;;;;;0.90;0.65;;;31.00;57.20;;;;;;5097579;28;20017;-71
2021/07/06 07:26:46;;;;;;;1.75;0.90;;;31.00;58.50;;;;;;5096269;28;20062;-71
2021/07/06 07:29:12;;;;;;;2.30;1.50;;;31.20;57.90;;;;;;5097545;28;20028;-71
2021/07/06 07:31:38;;;;;;;1.88;1.70;;;31.40;54.30;;;;;;5097520;28;20484;-71
2021/07/06 07:34:04;;;;;;;1.52;1.00;;;31.40;53.90;;;;;;5097454;28;20419;-71
2021/07/06 07:36:30;;;;;;;1.20;0.95;;;31.60;55.10;;;;;;5097071;28;20024;-71
2021/07/06 07:38:59;;;;;;;1.67;1.10;;;31.80;55.90;;;;;;5097080;28;20032;-71
2021/07/06 07:41:25;;;;;;;1.58;0.98;;;31.50;54.70;;;;;;5097374;28;20031;-71
2021/07/06 07:43:54;;;;;;;1.60;0.90;;;31.30;56.30;;;;;;5097329;28;20293;-71
2021/07/06 07:46:21;;;;;;;4.93;0.98;;;31.40;56.70;;;;;;5096839;28;20044;-71
2021/07/06 07:48:47;;;;;;;1.75;1.15;;;31.70;56.20;;;;;;5097273;28;20016;-71
2021/07/06 07:51:13;;;;;;;1.23;1.00;;;31.70;54.70;;;;;;5097250;28;20366;-71
2021/07/06 07:53:39;;;;;;;2.33;1.10;;;31.80;55.00;;;;;;5097183;28;20044;-71
2021/07/06 07:56:05;;;;;;;2.35;1.48;;;31.80;55.60;;;;;;5097138;28;20396;-71
2021/07/06 07:58:31;;;;;;;3.72;1.10;;;31.80;55.00;;;;;;5096811;28;20416;-70
2021/07/06 08:00:56;;;;;;;1.35;1.02;;;31.80;54.50;;;;;;5097096;28;20028;-70
2021/07/06 08:03:23;;;;;;;1.83;0.82;;;32.00;55.50;;;;;;5096760;28;20031;-71
2021/07/06 08:05:49;;;;;;;2.13;1.17;;;32.10;55.10;;;;;;5096995;28;20028;-71
2021/07/06 08:08:15;;;;;;;1.40;0.88;;;32.10;54.80;;;;;;5096752;28;20021;-70
2021/07/06 08:10:41;;;;;;;1.77;1.00;;;32.10;57.30;;;;;;5097011;28;20031;-70
2021/07/06 08:13:09;;;;;;;2.55;1.00;;;31.80;55.80;;;;;;5096821;28;20024;-70
2021/07/06 08:15:34;;;;;;;1.77;0.90;;;32.00;54.50;;;;;;5096962;28;20059;-70
2021/07/06 08:18:00;;;;;;;1.40;1.10;;;32.20;55.70;;;;;;5096962;28;20400;-71
2021/07/06 08:20:26;;;;;;;4.47;1.20;;;32.60;54.90;;;;;;5096923;28;20317;-71
2021/07/06 08:22:55;;;;;;;3.08;1.10;;;32.90;53.40;;;;;;5096839;28;20026;-71
2021/07/06 08:25:23;;;;;;;1.33;1.20;;;32.70;54.40;;;;;;5096814;28;20153;-71
2021/07/06 08:27:49;;;;;;;2.22;1.20;;;32.60;53.90;;;;;;5096390;28;20047;-71
2021/07/06 08:30:15;;;;;;;2.92;0.98;;;32.60;52.80;;;;;;5096531;28;20024;-71
2021/07/06 08:32:40;;;;;;;3.05;1.00;;;32.70;53.90;;;;;;5096484;28;20032;-71
2021/07/06 08:35:06;;;;;;;1.98;1.30;;;33.00;54.40;;;;;;5096463;28;20027;-71
2021/07/06 08:37:32;;;;;;;2.05;1.13;;;32.60;53.00;;;;;;5096781;28;20031;-71
2021/07/06 08:39:59;;;;;;;1.52;1.30;;;32.70;55.00;;;;;;5100456;28;20036;-70
2021/07/06 08:42:25;;;;;;;1.70;1.13;;;32.90;52.30;;;;;;5100657;28;20104;-70
2021/07/06 08:44:51;;;;;;;3.40;1.10;;;33.10;53.00;;;;;;5100770;28;20020;-70
2021/07/06 08:47:18;;;;;;;2.78;1.20;;;33.10;53.80;;;;;;5100506;28;20393;-71
2021/07/06 08:49:48;;;;;;;2.38;1.15;;;33.10;54.90;;;;;;5100505;28;20024;-71
2021/07/06 08:52:15;;;;;;;3.50;1.05;;;33.30;53.90;;;;;;5100188;28;20021;-71
2021/07/06 08:54:40;;;;;;;2.75;1.38;;;33.40;54.50;;;;;;5100453;28;20320;-71
2021/07/06 08:57:07;;;;;;;2.78;1.00;;;33.40;52.00;;;;;;5100403;28;20020;-70
2021/07/06 08:59:40;;;;;;;2.65;1.20;;;33.40;53.60;;;;;;5100049;28;20020;-70
2021/07/06 09:02:07;;;;;;;1.60;1.20;;;33.10;53.90;;;;;;5100328;28;20031;-70
2021/07/06 09:04:43;;;;;;;2.00;1.00;;;32.80;55.30;;;;;;5100351;28;20040;-70
2021/07/06 09:07:09;;;;;;;1.80;1.10;;;32.90;54.60;;;;;;5100158;28;20298;-70
2021/07/06 09:09:35;;;;;;;2.20;1.17;;;33.40;53.70;;;;;;5099889;28;20028;-70
2021/07/06 09:12:00;;;;;;;1.63;1.00;;;33.50;54.90;;;;;;5099827;28;20031;-70
2021/07/06 09:14:30;;;;;;;2.45;0.95;;;33.60;52.20;;;;;;5100128;28;20020;-71
2021/07/06 09:17:13;;;;;;;1.58;1.10;;;33.80;56.60;;;;;;5099993;28;20082;-71
2021/07/06 09:19:53;;;;;;;4.88;1.15;;;33.80;52.90;;;;;;5099954;28;20115;-71
2021/07/06 09:22:21;;;;;;;2.25;1.00;;;33.70;51.30;;;;;;5099874;28;20026;-71
2021/07/06 09:24:49;;;;;;;1.88;1.20;;;33.70;52.50;;;;;;5099871;28;20032;-71
2021/07/06 09:27:43;;;;;;;2.75;1.10;;;33.60;51.60;;;;;;5099309;28;20436;-71
2021/07/06 09:30:18;;;;;;;1.05;0.88;;;33.80;51.50;;;;;;5099826;28;20028;-71
2021/07/06 09:32:45;;;;;;;2.50;1.13;;;33.60;53.10;;;;;;5099416;28;20024;-71
2021/07/06 09:35:14;;;;;;;1.95;1.23;;;33.50;53.10;;;;;;5099649;28;20289;-71
2021/07/06 09:37:44;;;;;;;3.20;1.10;;;33.60;52.00;;;;;;5099669;28;20028;-71
2021/07/06 09:40:36;;;;;;;1.48;0.93;;;33.60;53.00;;;;;;5099565;28;20026;-71
2021/07/06 09:43:26;;;;;;;2.03;1.00;;;33.40;53.80;;;;;;5099139;28;20024;-71
2021/07/06 09:46:08;;;;;;;1.17;1.00;;;33.60;54.70;;;;;;5099375;28;20070;-71
2021/07/06 09:48:35;;;;;;;1.92;1.00;;;33.90;53.30;;;;;;5099837;28;20336;-71
2021/07/06 09:51:16;;;;;;;2.75;1.00;;;34.10;51.70;;;;;;5098378;28;20026;-71
2021/07/06 09:53:46;;;;;;;1.48;1.00;;;34.30;52.60;;;;;;5099326;28;20043;-71
2021/07/06 09:56:17;;;;;;;1.35;1.00;;;34.30;53.00;;;;;;5099274;28;20377;-71
2021/07/06 09:59:00;;;;;;;2.25;1.10;;;34.50;51.00;;;;;;5099297;28;20115;-71
2021/07/06 10:01:27;;;;;;;2.55;1.33;;;34.50;54.00;;;;;;5099255;28;20097;-71
2021/07/06 10:03:54;;;;;;;2.53;1.10;;;34.30;51.50;;;;;;5098814;28;20472;-71
2021/07/06 10:06:29;;;;;;;1.33;1.10;;;34.10;54.30;;;;;;5098644;28;20027;-71
2021/07/06 10:08:56;;;;;;;1.65;0.80;;;34.30;52.20;;;;;;5099103;28;20047;-71
2021/07/06 10:11:23;;;;;;;3.70;0.90;;;34.40;54.60;;;;;;5098682;28;20020;-71
2021/07/06 10:13:49;;;;;;;2.50;1.20;;;34.10;52.40;;;;;;5098788;28;20038;-71
2021/07/06 10:16:18;;;;;;;2.10;1.20;;;34.10;53.80;;;;;;5098795;28;20028;-71
2021/07/06 10:18:45;;;;;;;2.63;1.40;;;34.00;54.10;;;;;;5091548;28;20064;-71
2021/07/06 10:21:11;;;;;;;1.52;1.23;;;33.80;52.60;;;;;;5087442;28;20123;-71
2021/07/06 10:23:38;;;;;;;2.38;1.27;;;33.60;52.70;;;;;;5078452;28;20029;-71
2021/07/06 10:26:08;;;;;;;2.55;0.90;;;33.50;54.40;;;;;;5077850;28;20459;-71
2021/07/06 10:28:34;;;;;;;2.60;0.95;;;33.50;55.20;;;;;;5078078;28;20029;-71
2021/07/06 10:31:16;;;;;;;1.00;0.80;;;33.60;55.50;;;;;;5078584;28;20309;-71
2021/07/06 10:33:44;;;;;;;1.40;0.82;;;33.70;55.70;;;;;;5077969;28;20063;-71
2021/07/06 10:36:13;;;;;;;2.08;1.00;;;33.80;55.00;;;;;;5077872;28;20070;-71
2021/07/06 10:38:42;;;;;;;2.17;0.95;;;33.90;52.00;;;;;;5078163;28;20025;-71
2021/07/06 10:41:21;;;;;;;2.92;0.70;;;33.80;53.80;;;;;;5077844;28;20036;-71
2021/07/06 10:43:46;;;;;;;3.50;0.90;;;33.80;57.10;;;;;;5078142;28;20025;-71
2021/07/06 10:46:21;;;;;;;1.58;0.80;;;33.80;57.60;;;;;;5077936;28;20040;-71
2021/07/06 10:49:09;;;;;;;2.40;0.90;;;33.90;54.90;;;;;;5077988;28;20133;-71
2021/07/06 10:51:34;;;;;;;2.22;1.00;;;34.00;51.60;;;;;;5077921;28;20020;-71
2021/07/06 10:54:06;;;;;;;1.98;1.00;;;33.80;51.90;;;;;;5077554;28;20329;-71
2021/07/06 10:56:33;;;;;;;1.60;0.93;;;33.50;56.30;;;;;;5077459;28;20489;-71
2021/07/06 10:59:02;;;;;;;1.33;1.02;;;33.50;54.10;;;;;;5077516;28;20028;-71
2021/07/06 11:01:37;;;;;;;1.33;0.82;;;33.70;59.80;;;;;;5077047;28;20219;-71
2021/07/06 11:04:08;;;;;;;1.08;0.75;;;33.60;54.30;;;;;;5077631;28;20059;-71
2021/07/06 11:06:46;;;;;;;1.70;0.98;;;33.70;52.60;;;;;;5077270;28;20024;-71
2021/07/06 11:09:13;;;;;;;1.58;0.90;;;33.60;55.40;;;;;;5077614;28;20032;-71
2021/07/06 11:11:39;;;;;;;2.45;1.08;;;33.50;56.40;;;;;;5077197;28;20085;-71
2021/07/06 11:14:21;;;;;;;3.58;1.02;;;33.50;56.30;;;;;;5077456;28;20067;-70
2021/07/06 11:17:01;;;;;;;1.58;0.80;;;33.30;54.00;;;;;;5077495;28;20032;-71
2021/07/06 11:19:38;;;;;;;1.55;0.80;;;33.20;55.50;;;;;;5077442;28;20329;-70
2021/07/06 11:22:10;;;;;;;1.30;0.80;;;33.10;56.10;;;;;;5077381;28;20017;-71
2021/07/06 11:24:43;;;;;;;2.75;1.00;;;33.10;53.80;;;;;;5077381;28;20056;-70
2021/07/06 11:27:09;;;;;;;2.65;1.00;;;32.90;55.90;;;;;;5076791;28;20046;-71
2021/07/06 11:29:39;;;;;;;2.35;0.90;;;32.60;53.90;;;;;;5077487;28;20357;-71
2021/07/06 11:32:17;;;;;;;0.82;0.60;;;32.60;56.60;;;;;;5076781;28;20102;-71
2021/07/06 11:34:45;;;;;;;2.33;0.90;;;32.70;56.60;;;;;;5077248;28;20033;-71
2021/07/06 11:37:18;;;;;;;4.47;0.80;;;32.90;52.50;;;;;;5077157;28;20024;-71
2021/07/06 11:39:47;;;;;;;1.58;0.77;;;33.10;57.10;;;;;;5077166;28;20028;-71
2021/07/06 11:42:13;;;;;;;2.60;0.63;;;32.90;53.30;;;;;;5076884;28;20017;-70
2021/07/06 11:44:45;;;;;;;5.78;1.48;;;32.70;52.60;;;;;;5077287;28;20074;-70
2021/07/06 11:47:14;;;;;;;1.75;0.98;;;32.60;54.90;;;;;;5077042;28;20382;-70
2021/07/06 11:49:40;;;;;;;1.02;0.68;;;32.30;53.20;;;;;;5077048;28;20031;-70
2021/07/06 11:52:06;;;;;;;2.15;0.80;;;31.90;54.10;;;;;;5077000;28;20032;-70
2021/07/06 11:54:32;;;;;;;0.77;0.65;;;31.70;57.50;;;;;;5077058;28;20103;-70
2021/07/06 11:57:05;;;;;;;1.02;0.70;;;31.80;56.30;;;;;;5076619;28;20032;-70
2021/07/06 11:59:31;;;;;;;2.20;0.80;;;31.70;57.50;;;;;;5076654;28;20494;-70
2021/07/06 12:02:08;;;;;;;2.13;1.10;;;31.40;59.00;;;;;;5076930;28;20024;-70
2021/07/06 12:04:35;;;;;;;1.58;0.90;;;31.50;59.50;;;;;;5076606;28;20025;-70
2021/07/06 12:07:08;;;;;;;1.30;0.90;;;31.50;56.70;;;;;;5076712;28;20032;-70
2021/07/06 12:09:35;;;;;;;1.58;0.85;;;31.30;58.30;;;;;;5076877;28;20021;-70
2021/07/06 12:12:11;;;;;;;2.53;0.90;;;31.20;59.20;;;;;;5077103;28;20031;-70
2021/07/06 12:14:46;;;;;;;1.35;0.90;;;31.00;56.00;;;;;;5079816;28;20032;-70
2021/07/06 12:17:21;;;;;;;;;;;30.80;58.30;;;;;;5081303;28;20032;-70
2021/07/06 12:19:47;;;;;;;3.20;1.00;;;30.60;62.90;;;;;;5080953;28;19927;-70
2021/07/06 12:22:18;;;;;;;2.05;1.50;;;30.50;60.00;;;;;;5080841;28;20029;-70
2021/07/06 12:24:43;;;;;;;5.38;1.13;;;30.30;58.80;;;;;;5080829;28;20036;-70
2021/07/06 12:27:12;;;;;;;2.05;1.35;;;30.20;59.10;;;;;;5080237;28;20037;-70
2021/07/06 12:29:38;;;;;;;2.15;1.30;;;30.20;58.90;;;;;;5080682;28;20028;-70
2021/07/06 12:32:12;;;;;;;1.40;1.02;;;30.00;57.80;;;;;;5080628;28;20020;-70
2021/07/06 12:34:46;;;;;;;1.67;1.17;;;30.00;64.90;;;;;;5080597;28;20056;-70
2021/07/06 12:37:15;;;;;;;2.03;1.42;;;30.00;62.80;;;;;;5080239;28;20033;-70
2021/07/06 12:39:45;;;;;;;4.88;1.80;;;29.90;59.30;;;;;;5080154;28;20444;-70
2021/07/06 12:42:22;;;;;;;2.80;1.20;;;29.80;60.20;;;;;;5080486;28;20095;-70
2021/07/06 12:44:57;;;;;;;2.35;1.20;;;29.80;61.60;;;;;;5080589;28;20037;-70
2021/07/06 12:47:37;;;;;;;2.00;1.30;;;29.90;63.60;;;;;;5080426;28;20060;-70
2021/07/06 12:50:15;;;;;;;1.48;0.98;;;29.80;60.30;;;;;;5080013;28;20051;-70
2021/07/06 12:52:42;;;;;;;2.38;1.30;;;29.60;59.40;;;;;;5080274;28;20035;-70